CG Wire — NDSB — position and weather

sailwx.info

Track history (hours):
 
Tides and Currents Weather Stations Pressure Air Temp Water Temp Dewpoint Dewpoint Depression Visibility Wind Speed Wind Dir Waves Ship Positions

CG Wire

Last reported at 2017-Sep-21 14:40 UTC. Time now 2017-Sep-21 15:55 UTC.
Position N 40°38' W 073°49'.

Length 19 m; draft 2 m.

Type: Military. MMSI: 366999975.

Date/timePositionNaut miles runAvg speedWind from/ knotsBaromVisibWave heightAir tempDewpointWater temp
2017-Sep-21 14:40N 40°38' W 073°49'3 0.1
2017-Sep-20 18:50N 40°35' W 073°49'3 8.2
2017-Sep-20 18:30N 40°34' W 073°53'4 7.0
2017-Sep-20 17:58N 40°32' W 073°57'4 7.2
2017-Sep-20 17:27N 40°29' W 073°60'1 0.0
2017-Sep-18 22:27N 40°28' W 074°01'14 4.0
2017-Sep-18 19:00N 40°38' W 073°48'0 0.1
2017-Sep-18 16:13N 40°38' W 073°48'1 0.0
2017-Sep-17 22:51N 40°38' W 073°48'0 0.3
2017-Sep-17 22:12N 40°38' W 073°48'0 0.6
2017-Sep-17 21:59N 40°38' W 073°48'0 0.1
2017-Sep-17 18:43N 40°38' W 073°49'0 0.5
2017-Sep-17 18:18N 40°38' W 073°49'0 0.3
2017-Sep-17 17:02N 40°38' W 073°48'0 1.7
2017-Sep-17 16:52N 40°38' W 073°49'1 0.1
2017-Sep-17 06:09N 40°38' W 073°48'1 0.1
2017-Sep-16 21:19N 40°38' W 073°49'2 6.1
2017-Sep-16 20:57N 40°36' W 073°49'4 7.6
2017-Sep-16 20:28N 40°34' W 073°54'4 7.2
2017-Sep-16 19:58N 40°32' W 073°57'3 2.0
2017-Sep-16 18:13N 40°29' W 073°59'2 7.5
2017-Sep-16 18:00N 40°29' W 074°01'1 0.0
2017-Sep-15 19:59N 40°28' W 074°01'4 6.6
2017-Sep-15 19:25N 40°31' W 074°02'4 8.9
2017-Sep-15 19:00N 40°35' W 074°02'5 9.4
2017-Sep-15 18:30N 40°40' W 074°03'510.5
2017-Sep-15 18:00N 40°45' W 074°01'510.7
2017-Sep-15 17:30N 40°50' W 073°58'5 0.3
2017-Sep-14 21:01N 40°55' W 073°55'111.7
2017-Sep-14 20:55N 40°53' W 073°55'513.0
2017-Sep-14 20:30N 40°49' W 073°58'611.7
2017-Sep-14 20:00N 40°43' W 074°01'4 8.0
2017-Sep-14 19:30N 40°40' W 074°05'0 0.7
2017-Sep-14 19:00N 40°40' W 074°05'0 0.0
2017-Sep-14 18:30N 40°40' W 074°05'0 0.0
2017-Sep-13 22:56N 40°40' W 074°05'2 4.2
2017-Sep-13 22:30N 40°40' W 074°03'510.4
2017-Sep-13 22:00N 40°45' W 074°01'5 9.8
2017-Sep-13 21:30N 40°49' W 073°58'4 8.3
2017-Sep-13 21:00N 40°53' W 073°56'  
Track history (hours):
 
Tides and Currents Weather Stations Pressure Air Temp Water Temp Dewpoint Dewpoint Depression Visibility Wind Speed Wind Dir Waves Ship Positions

CG Wire

Last reported at 2017-Sep-21 14:40 UTC. Time now 2017-Sep-21 15:55 UTC.
Position N 40°38' W 073°49'.

Length 19 m; draft 2 m.

Type: Military. MMSI: 366999975.

Date/timePositionNaut miles runAvg speedWind from/ knotsBaromVisibWave heightAir tempDewpointWater temp
2017-Sep-21 14:40N 40°38' W 073°49'3 0.1
2017-Sep-20 18:50N 40°35' W 073°49'3 8.2
2017-Sep-20 18:30N 40°34' W 073°53'4 7.0
2017-Sep-20 17:58N 40°32' W 073°57'4 7.2
2017-Sep-20 17:27N 40°29' W 073°60'1 0.0
2017-Sep-18 22:27N 40°28' W 074°01'14 4.0
2017-Sep-18 19:00N 40°38' W 073°48'0 0.1
2017-Sep-18 16:13N 40°38' W 073°48'1 0.0
2017-Sep-17 22:51N 40°38' W 073°48'0 0.3
2017-Sep-17 22:12N 40°38' W 073°48'0 0.6
2017-Sep-17 21:59N 40°38' W 073°48'0 0.1
2017-Sep-17 18:43N 40°38' W 073°49'0 0.5
2017-Sep-17 18:18N 40°38' W 073°49'0 0.3
2017-Sep-17 17:02N 40°38' W 073°48'0 1.7
2017-Sep-17 16:52N 40°38' W 073°49'1 0.1
2017-Sep-17 06:09N 40°38' W 073°48'1 0.1
2017-Sep-16 21:19N 40°38' W 073°49'2 6.1
2017-Sep-16 20:57N 40°36' W 073°49'4 7.6
2017-Sep-16 20:28N 40°34' W 073°54'4 7.2
2017-Sep-16 19:58N 40°32' W 073°57'3 2.0
2017-Sep-16 18:13N 40°29' W 073°59'2 7.5
2017-Sep-16 18:00N 40°29' W 074°01'1 0.0
2017-Sep-15 19:59N 40°28' W 074°01'4 6.6
2017-Sep-15 19:25N 40°31' W 074°02'4 8.9
2017-Sep-15 19:00N 40°35' W 074°02'5 9.4
2017-Sep-15 18:30N 40°40' W 074°03'510.5
2017-Sep-15 18:00N 40°45' W 074°01'510.7
2017-Sep-15 17:30N 40°50' W 073°58'5 0.3
2017-Sep-14 21:01N 40°55' W 073°55'111.7
2017-Sep-14 20:55N 40°53' W 073°55'513.0
2017-Sep-14 20:30N 40°49' W 073°58'611.7
2017-Sep-14 20:00N 40°43' W 074°01'4 8.0
2017-Sep-14 19:30N 40°40' W 074°05'0 0.7
2017-Sep-14 19:00N 40°40' W 074°05'0 0.0
2017-Sep-14 18:30N 40°40' W 074°05'0 0.0
2017-Sep-13 22:56N 40°40' W 074°05'2 4.2
2017-Sep-13 22:30N 40°40' W 074°03'510.4
2017-Sep-13 22:00N 40°45' W 074°01'5 9.8
2017-Sep-13 21:30N 40°49' W 073°58'4 8.3
2017-Sep-13 21:00N 40°53' W 073°56'  

Dump ship's entire track history